Terminal Aerodrome Forecast
Issued by NWS Sterling, VA

Current Version | Previous Version | Text Only | Print | Product List | Glossary On
Versions: 1 2 3 4 5 6 7 8 9 10 11 12 13 14 15
000
FTUS41 KLWX 211135
TAFMRB
TAF
KMRB 211135Z 2112/2212 00000KT P6SM SKC
     FM211700 17005KT P6SM FEW050
     FM220800 00000KT 4SM BR FEW060=

USA.gov is the U.S. government's official web portal to all federal, state and local government web resources and services.